Atwell, WV

5:05 PM EDT on May 24, 2015 (GMT -0400)
RAWS | | Change Station
CLOSE
Current Station
Personal Weather Station
Location: Welch, WV
Elevation: 2100 ft
Nearby Weather Stations

Elev 2100 ft 37.40 °N, 81.54 °W | Updated 48 minutes ago

Clear
Clear
82 °F
Feels Like 81 °F
N
3
Wind Variable Wind from SSW
Gusts 9.0 mph

Today
High -- | Low -- °F
--% Chance of Precip.
Yesterday
High -- | Low -- °F
Precip. -- in
6:11 AM 8:36 PM
Waxing Crescent, 42% visible
Pressure 30.31 in
Visibility 10.0 miles
Clouds Clear
Heat Index 81 °F
Dew Point 51 °F
Humidity 34%
Rainfall in
Snow Depth Not available.
UV 6 out of 12
Pollen 8.20 out of 12
Air Quality Not available.
Flu Activity Sporadic
METAR KJFZ 242055Z AUTO 14007KT 110V170 10SM CLR 26/11 A3031 RMK AO2 T02580109

More Conditions Fewer Conditions

Pressure 30.31 in
Visibility 10.0 miles
Clouds Clear
Heat Index 81 °F
Dew Point 51 °F
Humidity 34%
Rainfall in
Snow Depth Not available.
UV 6 out of 12
Pollen 8.20 out of 12
Air Quality Not available.
Flu Activity Sporadic
METAR KJFZ 242055Z AUTO 14007KT 110V170 10SM CLR 26/11 A3031 RMK AO2 T02580109

More Conditions Fewer Conditions

10-Day Weather Forecast

Almanac

Astronomy

May. 24, 2015 Rise Set
Actual Time
Civil Twilight
Nautical Twilight
Astronomical Twilight
Moon
Length of Visible Light
Length of Day
Tomorrow will be .
, % of the Moon is Illuminated

Today's Extremes

State Highs State Lows

Community

WunderPhotos

Upload Photos

1,823,865 photos uploaded!

WunderBlogs® & News

Nearby

Air Quality

  Air Quality AQ Index Pollutant
Not available.

Snow Depth

Station Depth Elevation

Earthquake Activity

City Distance Mag. Time & Date
Minimum magnitude displayed is 2.5.

Coastal Water Temperatures

Place Temperature

Stations

Nearby Weather Stations

Station Location Temp. Windchill Dew Point Humidity Wind Precip. Elev Updated Type